createdAt,value
2022-08-17T00:00:05.104Z,5.20
2022-08-17T00:02:38.305Z,5.43
2022-08-17T00:05:11.883Z,5.82
2022-08-17T00:07:39.331Z,5.03
2022-08-17T00:10:07.986Z,5.63
2022-08-17T00:12:44.381Z,5.43
2022-08-17T00:15:13.504Z,6.05
2022-08-17T00:17:42.044Z,6.35
2022-08-17T00:20:10.159Z,5.45
2022-08-17T00:22:38.952Z,5.43
2022-08-17T00:25:10.315Z,5.27
2022-08-17T00:27:37.802Z,4.60
2022-08-17T00:30:07.528Z,5.07
2022-08-17T00:33:14.906Z,4.80
2022-08-17T00:35:27.698Z,5.10
2022-08-17T00:37:56.496Z,5.23
2022-08-17T00:40:25.675Z,5.00
2022-08-17T00:42:54.060Z,4.75
2022-08-17T00:45:22.695Z,4.95
2022-08-17T00:47:50.344Z,5.07
2022-08-17T00:50:19.890Z,5.20
2022-08-17T00:52:55.080Z,4.82
2022-08-17T00:55:26.273Z,5.43
2022-08-17T00:57:59.398Z,5.80
2022-08-17T01:00:29.970Z,4.97
2022-08-17T01:03:01.329Z,5.13
2022-08-17T01:05:32.053Z,5.07
2022-08-17T01:08:00.909Z,5.05
2022-08-17T01:10:58.656Z,5.15
2022-08-17T01:13:22.532Z,5.28
2022-08-17T01:15:55.894Z,4.80
2022-08-17T01:18:23.765Z,5.35
2022-08-17T01:20:53.964Z,5.63
2022-08-17T01:23:25.329Z,5.22
2022-08-17T01:25:57.338Z,5.35
2022-08-17T01:28:36.476Z,5.50
2022-08-17T01:31:15.926Z,5.38
2022-08-17T01:33:43.413Z,4.88
2022-08-17T01:36:11.171Z,5.43
2022-08-17T01:38:40.590Z,5.63
2022-08-17T01:41:12.734Z,5.47
2022-08-17T01:43:44.878Z,4.93
2022-08-17T01:46:17.820Z,5.35
2022-08-17T01:48:47.321Z,5.10
2022-08-17T01:51:16.389Z,5.15
2022-08-17T01:53:49.195Z,5.17
2022-08-17T01:56:20.736Z,5.18
2022-08-17T01:58:48.631Z,5.40
2022-08-17T02:01:20.843Z,5.28
2022-08-17T02:03:59.040Z,4.70
2022-08-17T02:06:31.435Z,5.53
2022-08-17T02:09:16.411Z,5.57
2022-08-17T02:11:45.342Z,5.40
2022-08-17T02:14:14.532Z,5.07
2022-08-17T02:16:42.822Z,5.40
2022-08-17T02:19:12.786Z,4.90
2022-08-17T02:21:41.593Z,4.90
2022-08-17T02:24:13.558Z,5.22
2022-08-17T02:26:41.128Z,4.75
2022-08-17T02:29:08.598Z,4.97
2022-08-17T02:31:36.101Z,4.67
2022-08-17T02:34:05.194Z,4.55
2022-08-17T02:36:34.574Z,4.90
2022-08-17T02:39:02.450Z,4.32
2022-08-17T02:41:31.312Z,4.55
2022-08-17T02:43:58.858Z,4.90
2022-08-17T02:46:26.484Z,4.60
2022-08-17T02:48:53.914Z,4.60
2022-08-17T02:51:21.390Z,4.60
2022-08-17T02:53:49.040Z,4.20
2022-08-17T02:56:16.482Z,4.70
2022-08-17T02:58:46.182Z,4.65
2022-08-17T03:01:14.004Z,4.57
2022-08-17T03:03:41.926Z,4.70
2022-08-17T03:06:10.369Z,4.95
2022-08-17T03:08:38.396Z,5.03
2022-08-17T03:11:05.956Z,4.68
2022-08-17T03:13:33.971Z,4.50
2022-08-17T03:16:03.039Z,5.15
2022-08-17T03:18:30.598Z,4.57
2022-08-17T03:21:00.150Z,4.73
2022-08-17T03:23:29.556Z,4.50
2022-08-17T03:25:57.657Z,5.25
2022-08-17T03:28:26.315Z,4.78
2022-08-17T03:30:53.818Z,4.55
2022-08-17T03:33:22.920Z,4.60
2022-08-17T03:35:50.836Z,4.80
2022-08-17T03:38:18.656Z,5.03
2022-08-17T03:40:58.203Z,4.68
2022-08-17T03:43:28.502Z,4.53
2022-08-17T03:46:28.610Z,5.57
2022-08-17T03:49:20.712Z,4.13
2022-08-17T03:52:05.944Z,5.15
2022-08-17T03:54:51.344Z,4.20
2022-08-17T03:57:18.988Z,4.28
2022-08-17T03:59:46.494Z,4.27
2022-08-17T04:02:19.648Z,4.32
2022-08-17T04:04:50.600Z,4.63
2022-08-17T04:07:18.592Z,4.30
2022-08-17T04:09:46.062Z,4.47
2022-08-17T04:12:16.246Z,4.13
2022-08-17T04:14:52.085Z,4.30
2022-08-17T04:17:24.017Z,4.30
2022-08-17T04:19:53.263Z,4.18
2022-08-17T04:22:32.737Z,4.53
2022-08-17T04:25:04.097Z,3.90
2022-08-17T04:27:31.655Z,4.43
2022-08-17T04:29:59.423Z,4.68
2022-08-17T04:33:03.436Z,4.68
2022-08-17T04:35:20.203Z,4.32
2022-08-17T04:37:47.836Z,4.03
2022-08-17T04:40:32.943Z,4.55
2022-08-17T04:43:05.765Z,4.60
2022-08-17T04:45:33.241Z,4.25
2022-08-17T04:48:01.170Z,4.07
2022-08-17T04:50:30.054Z,4.33
2022-08-17T04:52:57.866Z,4.60
2022-08-17T04:55:25.540Z,4.60
2022-08-17T04:57:53.052Z,4.32
2022-08-17T05:00:20.855Z,4.65
2022-08-17T05:02:49.581Z,4.47
2022-08-17T05:05:19.865Z,4.55
2022-08-17T05:07:52.114Z,4.53
2022-08-17T05:10:19.938Z,4.57
2022-08-17T05:12:47.412Z,4.68
2022-08-17T05:15:16.248Z,4.40
2022-08-17T05:17:43.778Z,4.78
2022-08-17T05:20:12.310Z,4.57
2022-08-17T05:22:50.977Z,4.40
2022-08-17T05:25:23.941Z,5.25
2022-08-17T05:27:54.088Z,4.63
2022-08-17T05:30:22.612Z,4.88
2022-08-17T05:32:54.997Z,4.85
2022-08-17T05:35:23.112Z,4.18
2022-08-17T05:37:52.451Z,4.40
2022-08-17T05:40:21.599Z,4.17
2022-08-17T05:42:49.952Z,4.00
2022-08-17T05:45:32.099Z,5.20
2022-08-17T05:48:10.164Z,4.22
2022-08-17T05:50:52.653Z,4.10
2022-08-17T05:53:30.097Z,4.20
2022-08-17T05:56:30.369Z,4.15
2022-08-17T05:59:09.104Z,4.50
2022-08-17T06:01:48.722Z,4.38
2022-08-17T06:04:28.314Z,4.40
2022-08-17T06:07:06.091Z,4.37
2022-08-17T06:09:41.547Z,4.20
2022-08-17T06:12:29.311Z,4.55
2022-08-17T06:15:10.584Z,4.47
2022-08-17T06:17:38.891Z,4.30
2022-08-17T06:20:13.372Z,4.37
2022-08-17T06:22:45.604Z,4.22
2022-08-17T06:25:18.865Z,4.10
2022-08-17T06:27:53.991Z,4.15
2022-08-17T06:30:24.776Z,4.55
2022-08-17T06:32:54.303Z,3.77
2022-08-17T06:35:31.995Z,4.35
2022-08-17T06:38:10.371Z,4.35
2022-08-17T06:41:12.519Z,4.22
2022-08-17T06:43:51.513Z,4.85
2022-08-17T06:46:25.183Z,4.50
2022-08-17T06:49:07.362Z,4.43
2022-08-17T06:51:40.310Z,5.20
2022-08-17T06:54:11.321Z,5.18
2022-08-17T06:56:54.320Z,6.30
2022-08-17T06:59:47.130Z,6.17
2022-08-17T07:02:29.383Z,5.90
2022-08-17T07:05:14.104Z,5.05
2022-08-17T07:08:03.804Z,5.13
2022-08-17T07:10:38.773Z,5.50
2022-08-17T07:13:44.398Z,5.60
2022-08-17T07:16:24.026Z,5.72
2022-08-17T07:18:54.648Z,5.65
2022-08-17T07:21:38.379Z,5.90
2022-08-17T07:24:29.367Z,5.20
2022-08-17T07:27:07.458Z,4.97
2022-08-17T07:29:40.695Z,12.40
2022-08-17T07:32:10.787Z,6.07
2022-08-17T07:35:11.128Z,5.75
2022-08-17T07:37:40.296Z,5.93
2022-08-17T07:40:22.023Z,5.27
2022-08-17T07:43:04.994Z,5.47
2022-08-17T07:45:53.162Z,4.50
2022-08-17T07:48:23.164Z,5.20
2022-08-17T07:50:53.058Z,4.97
2022-08-17T07:53:23.083Z,5.30
2022-08-17T07:55:51.870Z,5.85
2022-08-17T07:58:21.987Z,6.35
2022-08-17T08:01:05.237Z,6.95
2022-08-17T08:03:33.974Z,6.40
2022-08-17T08:06:03.940Z,5.53
2022-08-17T08:08:35.126Z,5.80
2022-08-17T08:11:07.265Z,5.85
2022-08-17T08:13:42.132Z,5.80
2022-08-17T08:16:24.658Z,5.95
2022-08-17T08:18:57.169Z,5.80
2022-08-17T08:21:34.112Z,5.88
2022-08-17T08:24:17.199Z,5.28
2022-08-17T08:26:57.923Z,6.07
2022-08-17T08:29:32.602Z,6.03
2022-08-17T08:32:07.504Z,6.97
2022-08-17T08:35:00.635Z,6.93
2022-08-17T08:37:43.231Z,6.50
2022-08-17T08:40:20.430Z,6.93
2022-08-17T08:42:57.916Z,7.30
2022-08-17T08:45:33.927Z,7.30
2022-08-17T08:48:45.929Z,7.47
2022-08-17T08:51:16.368Z,7.63
2022-08-17T08:53:53.151Z,7.30
2022-08-17T08:56:28.124Z,7.47
2022-08-17T08:59:04.068Z,7.37
2022-08-17T09:01:40.100Z,7.80
2022-08-17T09:04:25.252Z,9.07
2022-08-17T09:07:03.264Z,8.65
2022-08-17T09:09:43.583Z,8.68
2022-08-17T09:12:18.394Z,9.00
2022-08-17T09:14:55.395Z,10.35
2022-08-17T09:17:31.136Z,9.55
2022-08-17T09:20:05.802Z,9.23
2022-08-17T09:22:38.057Z,8.93
2022-08-17T09:25:10.256Z,7.97
2022-08-17T09:27:51.193Z,8.98
2022-08-17T09:30:19.364Z,8.27
2022-08-17T09:32:55.165Z,9.18
2022-08-17T09:35:32.743Z,8.02
2022-08-17T09:38:11.994Z,8.03
2022-08-17T09:40:48.303Z,8.77
2022-08-17T09:43:26.836Z,8.10
2022-08-17T09:45:58.680Z,8.00
2022-08-17T09:48:31.636Z,8.10
2022-08-17T09:51:06.906Z,7.50
2022-08-17T09:53:37.090Z,8.38
2022-08-17T09:56:17.921Z,7.47
2022-08-17T09:58:56.460Z,7.80
2022-08-17T10:01:36.626Z,7.45
2022-08-17T10:04:22.868Z,7.20
2022-08-17T10:07:01.940Z,7.43
2022-08-17T10:09:44.460Z,6.63
2022-08-17T10:12:29.820Z,6.90
2022-08-17T10:15:09.681Z,7.18
2022-08-17T10:17:44.689Z,7.47
2022-08-17T10:20:17.631Z,7.38
2022-08-17T10:23:22.542Z,7.75
2022-08-17T10:26:08.797Z,6.30
2022-08-17T10:28:41.412Z,6.30
2022-08-17T10:31:34.202Z,6.80
2022-08-17T10:34:28.222Z,6.80
2022-08-17T10:37:06.694Z,6.82
2022-08-17T10:39:51.972Z,5.40
2022-08-17T10:42:30.473Z,6.70
2022-08-17T10:45:06.864Z,6.00
2022-08-17T10:48:04.811Z,7.05
2022-08-17T10:50:58.458Z,7.03
2022-08-17T10:53:51.888Z,7.22
2022-08-17T10:56:23.577Z,7.47
2022-08-17T10:58:54.352Z,7.30
2022-08-17T11:01:44.254Z,7.82
2022-08-17T11:04:25.709Z,8.07
2022-08-17T11:07:04.135Z,8.30
2022-08-17T11:09:45.581Z,7.93
2022-08-17T11:12:27.532Z,8.87
2022-08-17T11:15:13.157Z,8.68
2022-08-17T11:18:01.594Z,8.90
2022-08-17T11:21:01.938Z,8.65
2022-08-17T11:23:46.305Z,8.13
2022-08-17T11:26:26.009Z,8.27
2022-08-17T11:28:59.950Z,8.48
2022-08-17T11:31:38.904Z,8.65
2022-08-17T11:34:14.308Z,8.80
2022-08-17T11:37:08.691Z,8.32
2022-08-17T11:39:52.706Z,8.17
2022-08-17T11:42:34.245Z,8.63
2022-08-17T11:45:31.694Z,9.38
2022-08-17T11:48:28.129Z,9.75
2022-08-17T11:51:18.627Z,9.25
2022-08-17T11:54:31.188Z,8.83
2022-08-17T11:56:52.738Z,9.27
2022-08-17T11:59:55.218Z,9.18
2022-08-17T12:02:46.938Z,8.38
2022-08-17T12:05:42.888Z,9.00
2022-08-17T12:08:19.544Z,8.97
2022-08-17T12:10:57.256Z,9.63
2022-08-17T12:13:30.441Z,9.18
2022-08-17T12:15:59.530Z,9.25
2022-08-17T12:18:31.926Z,9.93
2022-08-17T12:21:15.284Z,9.07
2022-08-17T12:23:55.226Z,8.57
2022-08-17T12:26:26.760Z,8.80
2022-08-17T12:28:59.673Z,8.80
2022-08-17T12:31:31.739Z,8.35
2022-08-17T12:34:00.614Z,8.20
2022-08-17T12:36:29.573Z,9.05
2022-08-17T12:39:14.201Z,8.45
2022-08-17T12:41:46.690Z,7.63
2022-08-17T12:44:17.272Z,9.05
2022-08-17T12:46:53.352Z,8.70
2022-08-17T12:49:26.291Z,8.73
2022-08-17T12:52:11.722Z,7.93
2022-08-17T12:54:46.557Z,8.20
2022-08-17T12:57:18.074Z,7.75
2022-08-17T12:59:51.356Z,10.33
2022-08-17T13:02:33.389Z,10.70
2022-08-17T13:05:02.963Z,10.60
2022-08-17T13:07:36.108Z,9.35
2022-08-17T13:10:04.891Z,9.95
2022-08-17T13:12:35.667Z,9.30
2022-08-17T13:15:03.808Z,9.27
2022-08-17T13:17:35.251Z,9.45
2022-08-17T13:20:06.689Z,8.45
2022-08-17T13:22:34.262Z,8.77
2022-08-17T13:25:05.407Z,8.93
2022-08-17T13:27:34.069Z,9.32
2022-08-17T13:30:05.490Z,9.50
2022-08-17T13:32:43.941Z,9.32
2022-08-17T13:35:53.199Z,9.90
2022-08-17T13:38:40.976Z,9.90
2022-08-17T13:41:08.754Z,9.93
2022-08-17T13:43:44.437Z,9.40
2022-08-17T13:46:18.531Z,9.55
2022-08-17T13:48:47.365Z,8.75
2022-08-17T13:51:33.419Z,6.97
2022-08-17T13:54:07.060Z,9.23
2022-08-17T13:56:47.435Z,9.15
2022-08-17T13:59:52.776Z,7.78
2022-08-17T14:02:13.521Z,8.05
2022-08-17T14:04:43.391Z,9.07
2022-08-17T14:07:27.809Z,8.43
2022-08-17T14:09:59.845Z,6.68
2022-08-17T14:12:31.235Z,7.60
2022-08-17T14:15:00.672Z,7.65
2022-08-17T14:17:34.940Z,7.30
2022-08-17T14:20:06.994Z,6.30
2022-08-17T14:22:36.891Z,7.47
2022-08-17T14:25:08.683Z,6.50
2022-08-17T14:27:52.326Z,6.13
2022-08-17T14:30:25.697Z,5.67
2022-08-17T14:32:57.889Z,5.85
2022-08-17T14:35:27.303Z,6.10
2022-08-17T14:37:54.908Z,4.90
2022-08-17T14:40:25.418Z,5.18
2022-08-17T14:42:54.948Z,5.30
2022-08-17T14:45:29.629Z,5.72
2022-08-17T14:48:02.565Z,6.45
2022-08-17T14:50:30.033Z,6.15
2022-08-17T14:53:01.449Z,5.30
2022-08-17T14:55:30.923Z,5.33
2022-08-17T14:57:58.486Z,4.38
2022-08-17T15:00:26.754Z,5.13
2022-08-17T15:02:56.585Z,5.18
2022-08-17T15:05:26.134Z,5.75
2022-08-17T15:07:55.666Z,5.07
2022-08-17T15:10:25.695Z,4.22
2022-08-17T15:12:55.074Z,3.90
2022-08-17T15:15:23.012Z,4.25
2022-08-17T15:17:51.505Z,4.00
2022-08-17T15:20:21.192Z,4.37
2022-08-17T15:22:50.592Z,4.00
2022-08-17T15:25:19.786Z,3.88
2022-08-17T15:27:47.469Z,3.60
2022-08-17T15:30:16.736Z,4.03
2022-08-17T15:32:50.619Z,3.93
2022-08-17T15:35:19.760Z,4.15
2022-08-17T15:37:56.420Z,3.95
2022-08-17T15:40:24.964Z,4.80
2022-08-17T15:42:52.588Z,4.75
2022-08-17T15:45:26.865Z,4.30
2022-08-17T15:47:54.344Z,4.28
2022-08-17T15:50:22.401Z,4.90
2022-08-17T15:52:56.727Z,4.65
2022-08-17T15:55:24.940Z,4.22
2022-08-17T15:57:53.074Z,4.60
2022-08-17T16:00:23.825Z,4.60
2022-08-17T16:03:46.148Z,4.57
2022-08-17T16:05:40.771Z,3.83
2022-08-17T16:08:08.854Z,3.67
2022-08-17T16:10:36.858Z,3.90
2022-08-17T16:13:05.183Z,3.70
2022-08-17T16:15:56.682Z,3.90
2022-08-17T16:18:28.163Z,4.53
2022-08-17T16:20:55.677Z,4.05
2022-08-17T16:23:23.764Z,3.73
2022-08-17T16:25:53.814Z,4.68
2022-08-17T16:28:23.306Z,4.47
2022-08-17T16:31:05.722Z,4.78
2022-08-17T16:33:36.323Z,3.88
2022-08-17T16:36:04.278Z,4.00
2022-08-17T16:38:31.774Z,4.47
2022-08-17T16:40:59.648Z,4.35
2022-08-17T16:43:27.168Z,4.03
2022-08-17T16:45:54.618Z,4.32
2022-08-17T16:48:23.802Z,4.70
2022-08-17T16:51:03.638Z,4.18
2022-08-17T16:53:31.916Z,4.68
2022-08-17T16:55:59.422Z,4.38
2022-08-17T16:58:26.867Z,4.65
2022-08-17T17:00:59.476Z,5.10
2022-08-17T17:03:31.629Z,4.68
2022-08-17T17:06:07.908Z,5.68
2022-08-17T17:08:44.067Z,4.63
2022-08-17T17:11:15.452Z,4.70
2022-08-17T17:13:50.044Z,4.10
2022-08-17T17:16:21.662Z,5.00
2022-08-17T17:19:05.069Z,4.80
2022-08-17T17:21:42.376Z,5.07
2022-08-17T17:24:14.868Z,4.88
2022-08-17T17:27:01.463Z,4.57
2022-08-17T17:29:47.370Z,5.00
2022-08-17T17:32:21.675Z,4.57
2022-08-17T17:34:54.528Z,5.10
2022-08-17T17:37:28.191Z,4.95
2022-08-17T17:40:00.606Z,4.50
2022-08-17T17:42:32.858Z,4.60
2022-08-17T17:45:07.788Z,4.70
2022-08-17T17:47:36.390Z,4.47
2022-08-17T17:50:07.030Z,4.18
2022-08-17T17:52:42.745Z,4.53
2022-08-17T17:55:22.759Z,4.35
2022-08-17T17:58:01.562Z,4.53
2022-08-17T18:00:37.722Z,3.95
2022-08-17T18:03:21.082Z,4.10
2022-08-17T18:06:01.474Z,4.40
2022-08-17T18:08:46.855Z,5.03
2022-08-17T18:11:27.154Z,4.88
2022-08-17T18:14:23.746Z,5.07
2022-08-17T18:16:55.564Z,5.22
2022-08-17T18:19:25.320Z,5.90
2022-08-17T18:22:02.136Z,5.20
2022-08-17T18:24:31.733Z,5.60
2022-08-17T18:27:00.965Z,5.90
2022-08-17T18:29:41.459Z,5.85
2022-08-17T18:32:17.488Z,6.23
2022-08-17T18:34:48.871Z,5.47
2022-08-17T18:37:32.170Z,6.50
2022-08-17T18:39:59.906Z,5.95
2022-08-17T18:42:30.333Z,6.15
2022-08-17T18:44:57.819Z,6.23
2022-08-17T18:47:27.442Z,6.20
2022-08-17T18:49:57.983Z,6.40
2022-08-17T18:52:30.445Z,6.60
2022-08-17T18:55:05.435Z,6.90
2022-08-17T18:57:35.641Z,7.20
2022-08-17T19:00:12.541Z,7.63
2022-08-17T19:02:52.196Z,8.10
2022-08-17T19:05:35.432Z,7.90
2022-08-17T19:08:21.239Z,7.70
2022-08-17T19:10:52.635Z,8.10
2022-08-17T19:13:25.626Z,7.75
2022-08-17T19:16:11.726Z,8.00
2022-08-17T19:18:47.297Z,7.57
2022-08-17T19:21:21.000Z,7.43
2022-08-17T19:23:54.763Z,7.80
2022-08-17T19:26:50.625Z,7.25
2022-08-17T19:29:16.476Z,7.45
2022-08-17T19:31:47.608Z,8.07
2022-08-17T19:34:30.004Z,7.80
2022-08-17T19:37:06.746Z,7.67
2022-08-17T19:39:44.414Z,8.10
2022-08-17T19:42:15.865Z,7.47
2022-08-17T19:45:01.380Z,8.50
2022-08-17T19:47:54.333Z,7.88
2022-08-17T19:50:40.967Z,8.37
2022-08-17T19:53:47.498Z,8.07
2022-08-17T19:56:29.387Z,8.32
2022-08-17T19:59:02.256Z,7.97
2022-08-17T20:01:37.649Z,8.98
2022-08-17T20:04:11.457Z,8.70
2022-08-17T20:06:43.588Z,8.48
2022-08-17T20:09:16.639Z,8.68
2022-08-17T20:11:50.615Z,9.35
2022-08-17T20:14:22.768Z,8.82
2022-08-17T20:16:50.398Z,8.43
2022-08-17T20:19:24.227Z,9.43
2022-08-17T20:21:58.381Z,8.45
2022-08-17T20:24:33.062Z,8.52
2022-08-17T20:27:14.029Z,8.15
2022-08-17T20:30:06.159Z,7.93
2022-08-17T20:32:36.231Z,8.45
2022-08-17T20:35:19.048Z,8.32
2022-08-17T20:37:53.710Z,8.07
2022-08-17T20:40:28.495Z,8.18
2022-08-17T20:42:59.210Z,7.63
2022-08-17T20:46:04.880Z,6.63
2022-08-17T20:48:40.885Z,6.50
2022-08-17T20:51:23.680Z,6.97
2022-08-17T20:54:26.305Z,7.50
2022-08-17T20:56:57.618Z,7.90
2022-08-17T21:00:18.039Z,8.23
2022-08-17T21:02:48.305Z,7.95
2022-08-17T21:05:37.208Z,8.77
2022-08-17T21:08:14.777Z,8.68
2022-08-17T21:10:46.901Z,9.97
2022-08-17T21:13:35.379Z,9.05
2022-08-17T21:16:24.133Z,8.73
2022-08-17T21:18:57.775Z,9.10
2022-08-17T21:21:32.568Z,8.57
2022-08-17T21:24:14.006Z,8.17
2022-08-17T21:26:50.781Z,7.60
2022-08-17T21:29:30.878Z,8.88
2022-08-17T21:32:24.307Z,8.10
2022-08-17T21:35:24.939Z,8.15
2022-08-17T21:37:57.148Z,8.27
2022-08-17T21:40:28.976Z,8.13
2022-08-17T21:42:59.676Z,8.60
2022-08-17T21:45:30.375Z,8.70
2022-08-17T21:48:13.822Z,7.90
2022-08-17T21:50:44.447Z,7.27
2022-08-17T21:53:23.736Z,7.70
2022-08-17T21:55:53.370Z,8.50
2022-08-17T21:58:30.294Z,8.85
2022-08-17T22:01:19.248Z,8.88
2022-08-17T22:03:56.400Z,9.73
2022-08-17T22:06:26.167Z,10.30
2022-08-17T22:09:02.661Z,10.30
2022-08-17T22:11:30.379Z,9.50
2022-08-17T22:14:05.133Z,8.88
2022-08-17T22:16:33.744Z,9.10
2022-08-17T22:19:04.816Z,8.65
2022-08-17T22:21:32.296Z,8.98
2022-08-17T22:24:05.790Z,8.38
2022-08-17T22:27:03.651Z,8.25
2022-08-17T22:29:57.497Z,9.07
2022-08-17T22:32:35.962Z,9.00
2022-08-17T22:35:19.450Z,9.35
2022-08-17T22:37:47.467Z,10.88
2022-08-17T22:40:28.051Z,10.50
2022-08-17T22:42:57.088Z,9.93
2022-08-17T22:45:25.234Z,11.32
2022-08-17T22:47:56.352Z,11.65
2022-08-17T22:50:28.672Z,11.27
2022-08-17T22:53:16.420Z,11.52
2022-08-17T22:56:08.373Z,11.87
2022-08-17T22:59:02.794Z,9.45
2022-08-17T23:01:32.328Z,7.93
2022-08-17T23:04:02.517Z,7.22
2022-08-17T23:06:33.626Z,6.50
2022-08-17T23:09:03.774Z,7.63
2022-08-17T23:11:49.476Z,7.10
2022-08-17T23:14:20.002Z,7.75
2022-08-17T23:16:48.548Z,8.27
2022-08-17T23:19:18.864Z,8.52
2022-08-17T23:21:50.904Z,9.00
2022-08-17T23:24:23.071Z,9.68
2022-08-17T23:26:51.101Z,10.05
2022-08-17T23:29:20.393Z,9.70
2022-08-17T23:31:49.110Z,10.02
2022-08-17T23:34:18.335Z,10.70
2022-08-17T23:36:50.560Z,10.38
2022-08-17T23:39:27.370Z,9.70
2022-08-17T23:41:56.160Z,8.18
2022-08-17T23:44:24.296Z,8.35
2022-08-17T23:46:52.497Z,8.97
2022-08-17T23:49:20.801Z,9.25
2022-08-17T23:51:50.016Z,10.38
2022-08-17T23:54:22.764Z,10.90
2022-08-17T23:56:50.455Z,12.30
2022-08-17T23:59:22.545Z,11.00
